createdAt,value
2023-03-07T00:00:20.366Z,4.70
2023-03-07T00:02:51.857Z,4.70
2023-03-07T00:05:20.331Z,4.70
2023-03-07T00:07:48.249Z,4.70
2023-03-07T00:10:16.582Z,4.80
2023-03-07T00:12:44.558Z,4.80
2023-03-07T00:15:15.515Z,4.80
2023-03-07T00:17:46.604Z,4.80
2023-03-07T00:20:15.434Z,4.80
2023-03-07T00:22:46.872Z,4.90
2023-03-07T00:25:15.448Z,4.90
2023-03-07T00:27:45.744Z,4.90
2023-03-07T00:30:15.310Z,4.90
2023-03-07T00:32:43.793Z,4.80
2023-03-07T00:35:11.958Z,4.90
2023-03-07T00:37:39.954Z,4.90
2023-03-07T00:40:09.891Z,4.80
2023-03-07T00:42:37.731Z,4.80
2023-03-07T00:45:10.921Z,4.90
2023-03-07T00:47:40.892Z,4.90
2023-03-07T00:50:09.562Z,4.80
2023-03-07T00:52:37.542Z,4.80
2023-03-07T00:55:06.176Z,4.80
2023-03-07T00:57:34.153Z,4.80
2023-03-07T01:00:02.156Z,4.80
2023-03-07T01:02:30.103Z,4.80
2023-03-07T01:04:59.455Z,4.80
2023-03-07T01:07:27.384Z,4.80
2023-03-07T01:09:55.388Z,4.80
2023-03-07T01:12:23.334Z,4.80
2023-03-07T01:14:51.753Z,4.80
2023-03-07T01:17:19.763Z,4.80
2023-03-07T01:19:47.696Z,4.80
2023-03-07T01:22:17.110Z,4.80
2023-03-07T01:24:45.104Z,4.80
2023-03-07T01:27:13.018Z,4.80
2023-03-07T01:29:41.012Z,4.80
2023-03-07T01:32:09.066Z,4.80
2023-03-07T01:34:37.953Z,4.70
2023-03-07T01:37:06.042Z,4.80
2023-03-07T01:39:35.528Z,4.80
2023-03-07T01:42:03.465Z,4.90
2023-03-07T01:44:32.656Z,4.90
2023-03-07T01:47:01.570Z,4.90
2023-03-07T01:49:34.171Z,4.80
2023-03-07T01:52:06.343Z,4.70
2023-03-07T01:54:41.769Z,4.80
2023-03-07T01:57:10.429Z,4.70
2023-03-07T01:59:45.348Z,4.70
2023-03-07T02:02:20.976Z,4.70
2023-03-07T02:04:55.492Z,4.60
2023-03-07T02:07:28.199Z,4.60
2023-03-07T02:09:59.206Z,4.60
2023-03-07T02:12:27.269Z,4.60
2023-03-07T02:14:55.398Z,4.60
2023-03-07T02:17:24.782Z,4.50
2023-03-07T02:20:01.752Z,4.50
2023-03-07T02:22:30.662Z,4.50
2023-03-07T02:25:03.921Z,4.50
2023-03-07T02:27:36.829Z,4.50
2023-03-07T02:30:05.485Z,4.50
2023-03-07T02:32:33.697Z,4.50
2023-03-07T02:35:01.853Z,4.40
2023-03-07T02:37:33.725Z,4.40
2023-03-07T02:40:06.567Z,4.40
2023-03-07T02:42:39.930Z,4.40
2023-03-07T02:45:11.561Z,4.40
2023-03-07T02:47:39.573Z,4.30
2023-03-07T02:50:08.505Z,4.20
2023-03-07T02:52:36.430Z,4.20
2023-03-07T02:55:04.534Z,4.20
2023-03-07T02:57:32.494Z,4.20
2023-03-07T03:00:01.732Z,4.10
2023-03-07T03:02:29.791Z,4.10
2023-03-07T03:05:02.741Z,4.10
2023-03-07T03:07:31.189Z,4.10
2023-03-07T03:10:10.705Z,4.10
2023-03-07T03:12:42.817Z,4.10
2023-03-07T03:15:16.075Z,4.10
2023-03-07T03:17:49.852Z,4.00
2023-03-07T03:20:19.442Z,4.00
2023-03-07T03:22:56.425Z,4.00
2023-03-07T03:25:25.556Z,3.90
2023-03-07T03:27:58.321Z,3.90
2023-03-07T03:30:32.698Z,4.00
2023-03-07T03:33:05.216Z,4.00
2023-03-07T03:35:41.392Z,4.00
2023-03-07T03:38:18.398Z,4.00
2023-03-07T03:40:52.349Z,4.00
2023-03-07T03:43:27.964Z,4.00
2023-03-07T03:46:08.140Z,4.10
2023-03-07T03:48:47.036Z,4.00
2023-03-07T03:51:15.804Z,4.00
2023-03-07T03:53:44.196Z,4.00
2023-03-07T03:56:18.032Z,4.00
2023-03-07T03:58:54.180Z,4.10
2023-03-07T04:01:39.882Z,4.10
2023-03-07T04:04:14.165Z,4.10
2023-03-07T04:06:53.865Z,4.10
2023-03-07T04:09:24.732Z,4.10
2023-03-07T04:11:56.510Z,4.10
2023-03-07T04:14:30.474Z,4.10
2023-03-07T04:17:14.882Z,4.10
2023-03-07T04:19:48.174Z,4.10
2023-03-07T04:22:23.985Z,4.10
2023-03-07T04:24:52.728Z,4.00
2023-03-07T04:27:35.770Z,4.00
2023-03-07T04:30:08.235Z,3.90
2023-03-07T04:32:48.009Z,3.90
2023-03-07T04:35:19.498Z,3.90
2023-03-07T04:37:50.810Z,3.80
2023-03-07T04:40:24.278Z,3.90
2023-03-07T04:43:00.518Z,3.80
2023-03-07T04:45:32.361Z,3.70
2023-03-07T04:48:04.684Z,3.70
2023-03-07T04:50:42.742Z,3.70
2023-03-07T04:53:17.406Z,3.60
2023-03-07T04:55:46.633Z,3.50
2023-03-07T04:58:16.900Z,3.50
2023-03-07T05:00:50.348Z,3.50
2023-03-07T05:03:29.258Z,3.40
2023-03-07T05:05:57.716Z,3.40
2023-03-07T05:08:26.468Z,3.40
2023-03-07T05:10:57.505Z,3.40
2023-03-07T05:13:26.553Z,3.40
2023-03-07T05:15:56.783Z,3.40
2023-03-07T05:18:31.039Z,3.40
2023-03-07T05:21:00.784Z,3.40
2023-03-07T05:23:38.236Z,3.40
2023-03-07T05:26:12.078Z,3.40
2023-03-07T05:28:41.693Z,3.50
2023-03-07T05:31:17.496Z,3.50
2023-03-07T05:33:53.260Z,3.50
2023-03-07T05:36:23.966Z,3.50
2023-03-07T05:38:54.055Z,3.60
2023-03-07T05:41:25.267Z,3.60
2023-03-07T05:43:56.400Z,3.60
2023-03-07T05:46:39.350Z,3.70
2023-03-07T05:49:14.951Z,3.70
2023-03-07T05:51:48.359Z,3.70
2023-03-07T05:54:16.858Z,3.80
2023-03-07T05:56:45.197Z,3.70
2023-03-07T05:59:15.678Z,3.80
2023-03-07T06:02:00.052Z,3.80
2023-03-07T06:04:41.032Z,3.80
2023-03-07T06:07:14.332Z,3.80
2023-03-07T06:09:54.627Z,3.80
2023-03-07T06:12:26.430Z,3.80
2023-03-07T06:14:54.890Z,3.80
2023-03-07T06:17:25.910Z,3.80
2023-03-07T06:20:03.987Z,3.80
2023-03-07T06:22:42.988Z,3.80
2023-03-07T06:25:13.146Z,3.90
2023-03-07T06:27:48.169Z,3.90
2023-03-07T06:30:19.534Z,3.90
2023-03-07T06:32:50.072Z,3.90
2023-03-07T06:35:40.118Z,4.00
2023-03-07T06:38:15.793Z,4.00
2023-03-07T06:40:48.222Z,4.00
2023-03-07T06:43:16.273Z,4.10
2023-03-07T06:45:44.682Z,4.10
2023-03-07T06:48:17.902Z,4.10
2023-03-07T06:50:47.844Z,4.10
2023-03-07T06:53:18.179Z,4.20
2023-03-07T06:55:53.502Z,4.20
2023-03-07T06:58:24.885Z,4.30
2023-03-07T07:00:52.929Z,4.30
2023-03-07T07:03:21.426Z,4.30
2023-03-07T07:05:53.478Z,4.40
2023-03-07T07:08:21.532Z,4.40
2023-03-07T07:10:51.483Z,4.40
2023-03-07T07:13:19.413Z,4.40
2023-03-07T07:15:48.469Z,4.40
2023-03-07T07:18:16.836Z,4.40
2023-03-07T07:20:44.748Z,4.50
2023-03-07T07:23:14.030Z,4.50
2023-03-07T07:25:41.999Z,4.60
2023-03-07T07:28:09.893Z,4.60
2023-03-07T07:30:37.823Z,4.70
2023-03-07T07:33:05.843Z,4.80
2023-03-07T07:35:33.786Z,4.90
2023-03-07T07:38:01.685Z,5.00
2023-03-07T07:40:31.035Z,5.10
2023-03-07T07:42:58.937Z,5.20
2023-03-07T07:45:26.930Z,5.30
2023-03-07T07:47:54.971Z,5.30
2023-03-07T07:50:24.324Z,5.30
2023-03-07T07:52:55.221Z,5.40
2023-03-07T07:55:27.720Z,5.40
2023-03-07T07:57:56.851Z,5.50
2023-03-07T08:00:25.114Z,5.60
2023-03-07T08:02:56.137Z,5.60
2023-03-07T08:05:24.515Z,5.60
2023-03-07T08:07:52.481Z,5.70
2023-03-07T08:10:20.731Z,5.70
2023-03-07T08:12:53.709Z,5.70
2023-03-07T08:15:23.254Z,5.70
2023-03-07T08:17:54.745Z,5.70
2023-03-07T08:20:25.568Z,5.70
2023-03-07T08:22:53.483Z,5.80
2023-03-07T08:25:25.635Z,5.90
2023-03-07T08:27:55.449Z,6.00
2023-03-07T08:30:26.476Z,6.20
2023-03-07T08:32:59.183Z,6.20
2023-03-07T08:35:28.339Z,6.20
2023-03-07T08:38:00.609Z,6.30
2023-03-07T08:40:29.725Z,6.30
2023-03-07T08:43:01.031Z,6.30
2023-03-07T08:45:31.725Z,6.30
2023-03-07T08:48:00.130Z,6.30
2023-03-07T08:50:30.880Z,6.40
2023-03-07T08:52:58.795Z,6.40
2023-03-07T08:55:26.804Z,6.50
2023-03-07T08:57:54.728Z,6.60
2023-03-07T09:00:23.102Z,6.70
2023-03-07T09:02:56.972Z,6.80
2023-03-07T09:05:24.957Z,6.80
2023-03-07T09:07:52.911Z,6.90
2023-03-07T09:10:22.183Z,7.00
2023-03-07T09:12:51.112Z,7.10
2023-03-07T09:15:19.290Z,7.40
2023-03-07T09:17:47.229Z,7.50
2023-03-07T09:20:17.938Z,7.40
2023-03-07T09:22:46.669Z,7.50
2023-03-07T09:25:14.765Z,7.60
2023-03-07T09:27:45.466Z,7.80
2023-03-07T09:30:14.479Z,7.90
2023-03-07T09:32:42.563Z,8.10
2023-03-07T09:35:11.424Z,8.20
2023-03-07T09:37:40.700Z,8.30
2023-03-07T09:40:13.458Z,8.20
2023-03-07T09:42:53.565Z,8.20
2023-03-07T09:45:30.408Z,8.30
2023-03-07T09:48:18.351Z,8.40
2023-03-07T09:50:54.431Z,8.40
2023-03-07T09:53:38.364Z,8.60
2023-03-07T09:56:13.366Z,8.70
2023-03-07T09:58:45.502Z,8.70
2023-03-07T10:01:16.397Z,8.80
2023-03-07T10:03:52.606Z,8.80
2023-03-07T10:06:26.218Z,8.80
2023-03-07T10:08:56.689Z,8.90
2023-03-07T10:11:39.983Z,9.20
2023-03-07T10:14:29.203Z,9.00
2023-03-07T10:17:08.027Z,9.20
2023-03-07T10:19:43.141Z,9.00
2023-03-07T10:22:19.599Z,8.90
2023-03-07T10:25:09.339Z,8.90
2023-03-07T10:27:37.255Z,9.00
2023-03-07T10:30:15.605Z,9.00
2023-03-07T10:32:47.346Z,9.30
2023-03-07T10:35:19.232Z,9.50
2023-03-07T10:37:51.236Z,9.50
2023-03-07T10:40:35.780Z,9.60
2023-03-07T10:43:05.973Z,9.70
2023-03-07T10:45:35.171Z,9.80
2023-03-07T10:48:09.020Z,10.10
2023-03-07T10:50:43.672Z,10.50
2023-03-07T10:53:23.660Z,10.60
2023-03-07T10:55:53.358Z,10.60
2023-03-07T10:58:24.849Z,10.60
2023-03-07T11:01:02.237Z,10.40
2023-03-07T11:03:46.068Z,10.00
2023-03-07T11:06:31.762Z,9.60
2023-03-07T11:09:10.786Z,9.30
2023-03-07T11:11:40.036Z,9.20
2023-03-07T11:14:09.876Z,9.10
2023-03-07T11:16:42.472Z,9.30
2023-03-07T11:19:33.986Z,9.30
2023-03-07T11:22:06.161Z,9.30
2023-03-07T11:24:40.465Z,9.40
2023-03-07T11:27:22.669Z,9.70
2023-03-07T11:30:17.056Z,10.70
2023-03-07T11:32:58.570Z,11.00
2023-03-07T11:35:41.319Z,10.90
2023-03-07T11:38:14.279Z,12.10
2023-03-07T11:40:45.120Z,12.50
2023-03-07T11:43:22.501Z,11.90
2023-03-07T11:45:57.808Z,11.50
2023-03-07T11:48:43.807Z,10.80
2023-03-07T11:51:32.938Z,10.50
2023-03-07T11:54:08.855Z,10.10
2023-03-07T11:56:41.467Z,9.70
2023-03-07T11:59:49.760Z,9.60
2023-03-07T12:02:34.021Z,9.40
2023-03-07T12:05:15.418Z,9.20
2023-03-07T12:07:57.583Z,9.00
2023-03-07T12:10:38.221Z,9.00
2023-03-07T12:13:16.538Z,8.90
2023-03-07T12:15:52.872Z,8.90
2023-03-07T12:18:38.887Z,8.80
2023-03-07T12:21:23.824Z,8.70
2023-03-07T12:23:59.604Z,8.80
2023-03-07T12:26:36.817Z,8.90
2023-03-07T12:29:20.108Z,8.90
2023-03-07T12:32:03.357Z,9.00
2023-03-07T12:34:49.013Z,8.90
2023-03-07T12:37:26.091Z,8.80
2023-03-07T12:40:01.333Z,8.80
2023-03-07T12:42:36.715Z,8.70
2023-03-07T12:45:16.116Z,8.60
2023-03-07T12:47:58.797Z,8.60
2023-03-07T12:50:39.659Z,8.70
2023-03-07T12:53:22.737Z,8.60
2023-03-07T12:55:57.293Z,8.50
2023-03-07T12:58:38.368Z,8.40
2023-03-07T13:01:17.985Z,8.40
2023-03-07T13:04:03.732Z,8.40
2023-03-07T13:06:38.425Z,8.40
2023-03-07T13:09:07.957Z,8.40
2023-03-07T13:12:27.131Z,8.30
2023-03-07T13:15:02.717Z,8.30
2023-03-07T13:18:01.202Z,8.30
2023-03-07T13:21:09.763Z,8.20
2023-03-07T13:23:46.063Z,8.30
2023-03-07T13:26:25.484Z,8.30
2023-03-07T13:28:57.891Z,8.30
2023-03-07T13:31:53.103Z,8.20
2023-03-07T13:34:48.781Z,8.20
2023-03-07T13:37:56.901Z,8.20
2023-03-07T13:40:56.298Z,8.30
2023-03-07T13:43:59.797Z,8.30
2023-03-07T13:46:55.809Z,8.30
2023-03-07T13:49:48.041Z,8.40
2023-03-07T13:52:40.064Z,8.40
2023-03-07T13:55:40.489Z,8.40
2023-03-07T13:58:20.401Z,8.40
2023-03-07T14:00:57.471Z,8.30
2023-03-07T14:03:30.556Z,8.20
2023-03-07T14:06:02.721Z,8.20
2023-03-07T14:08:33.966Z,8.20
2023-03-07T14:11:02.209Z,8.20
2023-03-07T14:13:52.934Z,8.20
2023-03-07T14:16:35.198Z,8.20
2023-03-07T14:19:13.602Z,8.10
2023-03-07T14:21:55.927Z,8.00
2023-03-07T14:24:51.552Z,8.00
2023-03-07T14:27:20.056Z,8.00
2023-03-07T14:29:58.048Z,7.90
2023-03-07T14:32:38.598Z,7.90
2023-03-07T14:35:15.638Z,7.90
2023-03-07T14:37:50.470Z,7.90
2023-03-07T14:40:35.956Z,7.90
2023-03-07T14:43:24.238Z,7.90
2023-03-07T14:46:02.326Z,7.90
2023-03-07T14:48:54.604Z,7.80
2023-03-07T14:51:28.027Z,7.80
2023-03-07T14:54:08.121Z,7.80
2023-03-07T14:56:36.683Z,7.90
2023-03-07T14:59:27.578Z,7.90
2023-03-07T15:02:06.295Z,7.90
2023-03-07T15:04:41.974Z,7.90
2023-03-07T15:07:22.710Z,7.90
2023-03-07T15:09:50.676Z,7.80
2023-03-07T15:12:29.454Z,7.80
2023-03-07T15:15:00.742Z,7.70
2023-03-07T15:17:31.746Z,7.60
2023-03-07T15:20:03.861Z,7.60
2023-03-07T15:22:39.274Z,7.50
2023-03-07T15:25:08.368Z,7.50
2023-03-07T15:27:36.619Z,7.40
2023-03-07T15:30:05.916Z,7.50
2023-03-07T15:32:36.697Z,7.50
2023-03-07T15:35:15.350Z,7.50
2023-03-07T15:37:58.364Z,7.60
2023-03-07T15:40:33.667Z,7.60
2023-03-07T15:43:17.586Z,7.60
2023-03-07T15:45:59.903Z,7.50
2023-03-07T15:48:35.649Z,7.50
2023-03-07T15:51:06.508Z,7.50
2023-03-07T15:53:39.031Z,7.50
2023-03-07T15:56:08.946Z,7.50
2023-03-07T15:58:41.346Z,7.50
2023-03-07T16:01:20.816Z,7.40
2023-03-07T16:03:51.143Z,7.40
2023-03-07T16:06:35.461Z,7.40
2023-03-07T16:09:12.088Z,7.30
2023-03-07T16:11:40.921Z,7.20
2023-03-07T16:14:21.675Z,7.10
2023-03-07T16:16:51.753Z,7.20
2023-03-07T16:19:19.670Z,7.10
2023-03-07T16:21:48.929Z,7.10
2023-03-07T16:24:18.200Z,7.10
2023-03-07T16:26:47.702Z,7.00
2023-03-07T16:29:17.781Z,7.10
2023-03-07T16:31:46.450Z,7.20
2023-03-07T16:34:17.279Z,7.10
2023-03-07T16:36:47.284Z,7.20
2023-03-07T16:39:23.865Z,7.20
2023-03-07T16:41:53.443Z,7.20
2023-03-07T16:44:23.679Z,7.20
2023-03-07T16:46:57.142Z,7.20
2023-03-07T16:49:25.306Z,7.20
2023-03-07T16:52:05.293Z,7.20
2023-03-07T16:54:34.637Z,7.20
2023-03-07T16:57:05.301Z,7.10
2023-03-07T16:59:35.762Z,7.10
2023-03-07T17:02:12.713Z,7.10
2023-03-07T17:04:48.459Z,7.10
2023-03-07T17:07:19.738Z,7.10
2023-03-07T17:09:48.264Z,7.00
2023-03-07T17:12:19.097Z,7.00
2023-03-07T17:14:47.514Z,7.00
2023-03-07T17:17:25.248Z,7.00
2023-03-07T17:19:57.734Z,7.00
2023-03-07T17:22:28.078Z,7.00
2023-03-07T17:24:56.138Z,7.00
2023-03-07T17:27:26.065Z,7.00
2023-03-07T17:29:56.178Z,7.00
2023-03-07T17:32:24.241Z,7.00
2023-03-07T17:34:52.394Z,7.10
2023-03-07T17:37:22.036Z,7.00
2023-03-07T17:39:50.163Z,7.00
2023-03-07T17:42:18.173Z,7.10
2023-03-07T17:44:48.636Z,7.10
2023-03-07T17:47:16.556Z,7.10
2023-03-07T17:49:46.734Z,7.20
2023-03-07T17:52:19.957Z,7.10
2023-03-07T17:54:48.754Z,7.20
2023-03-07T17:57:17.093Z,7.10
2023-03-07T17:59:45.182Z,7.10
2023-03-07T18:02:15.711Z,7.10
2023-03-07T18:04:45.990Z,7.10
2023-03-07T18:07:14.098Z,7.10
2023-03-07T18:09:42.224Z,7.00
2023-03-07T18:12:10.634Z,7.10
2023-03-07T18:14:41.538Z,7.10
2023-03-07T18:17:09.576Z,7.10
2023-03-07T18:19:42.157Z,7.10
2023-03-07T18:22:10.178Z,7.10
2023-03-07T18:24:38.467Z,7.10
2023-03-07T18:27:08.650Z,7.10
2023-03-07T18:29:36.630Z,7.10
2023-03-07T18:32:04.684Z,7.10
2023-03-07T18:34:33.077Z,7.00
2023-03-07T18:37:06.569Z,6.90
2023-03-07T18:39:35.624Z,6.90
2023-03-07T18:42:04.180Z,6.90
2023-03-07T18:44:43.160Z,6.90
2023-03-07T18:47:14.427Z,6.80
2023-03-07T18:49:43.254Z,6.80
2023-03-07T18:52:15.024Z,6.70
2023-03-07T18:54:46.002Z,6.70
2023-03-07T18:57:17.712Z,6.70
2023-03-07T18:59:46.491Z,6.70
2023-03-07T19:02:17.025Z,6.70
2023-03-07T19:04:55.701Z,6.80
2023-03-07T19:07:33.428Z,6.80
2023-03-07T19:10:04.217Z,6.80
2023-03-07T19:12:32.887Z,6.80
2023-03-07T19:15:07.981Z,6.80
2023-03-07T19:17:43.706Z,6.80
2023-03-07T19:20:14.251Z,6.70
2023-03-07T19:22:53.903Z,6.80
2023-03-07T19:25:32.824Z,6.70
2023-03-07T19:28:01.463Z,6.70
2023-03-07T19:30:35.917Z,6.70
2023-03-07T19:33:06.161Z,6.70
2023-03-07T19:35:36.885Z,6.60
2023-03-07T19:38:11.369Z,6.60
2023-03-07T19:40:52.322Z,6.50
2023-03-07T19:43:23.165Z,6.50
2023-03-07T19:45:53.685Z,6.50
2023-03-07T19:48:27.951Z,6.50
2023-03-07T19:51:02.961Z,6.50
2023-03-07T19:53:37.341Z,6.60
2023-03-07T19:56:10.643Z,6.60
2023-03-07T19:58:39.523Z,6.70
2023-03-07T20:01:10.199Z,6.70
2023-03-07T20:03:48.789Z,6.80
2023-03-07T20:06:20.426Z,6.80
2023-03-07T20:08:55.932Z,6.80
2023-03-07T20:11:27.171Z,6.70
2023-03-07T20:14:01.048Z,6.70
2023-03-07T20:16:38.286Z,6.70
2023-03-07T20:19:19.794Z,6.70
2023-03-07T20:21:50.926Z,6.70
2023-03-07T20:24:25.450Z,6.70
2023-03-07T20:26:55.930Z,6.70
2023-03-07T20:29:30.850Z,6.80
2023-03-07T20:31:59.299Z,6.70
2023-03-07T20:34:40.421Z,6.70
2023-03-07T20:37:16.573Z,6.60
2023-03-07T20:39:53.260Z,6.60
2023-03-07T20:42:24.430Z,6.50
2023-03-07T20:44:57.245Z,6.60
2023-03-07T20:47:41.501Z,6.60
2023-03-07T20:50:17.083Z,6.60
2023-03-07T20:52:46.022Z,6.60
2023-03-07T20:55:16.212Z,6.60
2023-03-07T20:57:51.703Z,6.60
2023-03-07T21:00:24.092Z,6.60
2023-03-07T21:03:05.218Z,6.70
2023-03-07T21:05:34.456Z,6.70
2023-03-07T21:08:03.013Z,6.70
2023-03-07T21:10:35.266Z,6.70
2023-03-07T21:13:04.036Z,6.70
2023-03-07T21:15:33.570Z,6.70
2023-03-07T21:18:05.834Z,6.80
2023-03-07T21:20:44.194Z,6.70
2023-03-07T21:23:12.833Z,6.80
2023-03-07T21:25:46.767Z,6.80
2023-03-07T21:28:16.211Z,6.70
2023-03-07T21:30:45.025Z,6.70
2023-03-07T21:33:24.434Z,6.80
2023-03-07T21:35:55.429Z,6.80
2023-03-07T21:38:30.222Z,6.80
2023-03-07T21:41:14.673Z,6.70
2023-03-07T21:43:46.119Z,6.70
2023-03-07T21:46:16.464Z,6.70
2023-03-07T21:48:56.543Z,6.70
2023-03-07T21:51:25.535Z,6.70
2023-03-07T21:53:54.607Z,6.80
2023-03-07T21:56:42.568Z,6.80
2023-03-07T21:59:26.472Z,6.80
2023-03-07T22:01:56.560Z,6.70
2023-03-07T22:04:32.774Z,6.80
2023-03-07T22:07:04.514Z,6.80
2023-03-07T22:09:40.368Z,6.80
2023-03-07T22:12:23.051Z,6.80
2023-03-07T22:14:54.302Z,6.80
2023-03-07T22:17:25.136Z,6.80
2023-03-07T22:19:53.988Z,6.80
2023-03-07T22:22:25.750Z,6.80
2023-03-07T22:24:54.443Z,6.80
2023-03-07T22:27:26.479Z,6.90
2023-03-07T22:29:54.912Z,6.90
2023-03-07T22:32:26.538Z,6.90
2023-03-07T22:34:57.252Z,6.90
2023-03-07T22:37:27.919Z,6.90
2023-03-07T22:40:05.302Z,6.90
2023-03-07T22:42:41.799Z,6.90
2023-03-07T22:45:20.241Z,6.80
2023-03-07T22:47:57.566Z,6.80
2023-03-07T22:50:28.894Z,6.80
2023-03-07T22:52:56.879Z,6.90
2023-03-07T22:55:25.034Z,6.80
2023-03-07T22:57:54.384Z,6.80
2023-03-07T23:00:23.009Z,6.80
2023-03-07T23:02:51.289Z,6.70
2023-03-07T23:05:19.256Z,6.80
2023-03-07T23:07:48.694Z,6.80
2023-03-07T23:10:17.112Z,6.70
2023-03-07T23:12:45.125Z,6.70
2023-03-07T23:15:14.796Z,6.70
2023-03-07T23:17:42.726Z,6.70
2023-03-07T23:20:11.761Z,6.70
2023-03-07T23:22:42.888Z,6.60
2023-03-07T23:25:12.121Z,6.70
2023-03-07T23:27:40.206Z,6.70
2023-03-07T23:30:09.027Z,6.70
2023-03-07T23:32:39.851Z,6.70
2023-03-07T23:35:08.395Z,6.70
2023-03-07T23:37:36.236Z,6.70
2023-03-07T23:40:05.127Z,6.70
2023-03-07T23:42:33.121Z,6.70
2023-03-07T23:45:04.188Z,6.70
2023-03-07T23:47:32.148Z,6.70
2023-03-07T23:50:01.432Z,6.60
2023-03-07T23:52:29.373Z,6.60
2023-03-07T23:54:57.386Z,6.60
2023-03-07T23:57:25.427Z,6.50
2023-03-07T23:59:53.403Z,6.50
